sensor_id;sensor_type;location;lat;lon;timestamp;pressure;altitude;pressure_sealevel;temperature
68743;BMP180;55725;42.758;26.702;2023-02-15T00:00:33;100408.00;;;4.40
68743;BMP180;55725;42.758;26.702;2023-02-15T00:02:13;100392.00;;;4.30
68743;BMP180;55725;42.758;26.702;2023-02-15T00:03:53;100398.00;;;4.40
68743;BMP180;55725;42.758;26.702;2023-02-15T00:05:33;100401.00;;;4.30
68743;BMP180;55725;42.758;26.702;2023-02-15T00:07:14;100398.00;;;4.30
68743;BMP180;55725;42.758;26.702;2023-02-15T00:08:55;100404.00;;;4.20
68743;BMP180;55725;42.758;26.702;2023-02-15T00:10:35;100404.00;;;4.20
68743;BMP180;55725;42.758;26.702;2023-02-15T00:12:15;100398.00;;;4.20
68743;BMP180;55725;42.758;26.702;2023-02-15T00:13:56;100398.00;;;4.20
68743;BMP180;55725;42.758;26.702;2023-02-15T00:15:38;100404.00;;;4.30
68743;BMP180;55725;42.758;26.702;2023-02-15T00:17:18;100407.00;;;4.20
68743;BMP180;55725;42.758;26.702;2023-02-15T00:18:59;100401.00;;;4.20
68743;BMP180;55725;42.758;26.702;2023-02-15T00:20:41;100402.00;;;4.20
68743;BMP180;55725;42.758;26.702;2023-02-15T00:22:22;100412.00;;;4.30
68743;BMP180;55725;42.758;26.702;2023-02-15T00:24:03;100409.00;;;4.20
68743;BMP180;55725;42.758;26.702;2023-02-15T00:25:43;100410.00;;;4.20
68743;BMP180;55725;42.758;26.702;2023-02-15T00:27:24;100402.00;;;4.20
68743;BMP180;55725;42.758;26.702;2023-02-15T00:29:04;100405.00;;;4.20
68743;BMP180;55725;42.758;26.702;2023-02-15T00:30:45;100415.00;;;4.20
68743;BMP180;55725;42.758;26.702;2023-02-15T00:32:25;100404.00;;;4.20
68743;BMP180;55725;42.758;26.702;2023-02-15T00:34:16;100414.00;;;4.20
68743;BMP180;55725;42.758;26.702;2023-02-15T00:35:57;100406.00;;;4.10
68743;BMP180;55725;42.758;26.702;2023-02-15T00:37:37;100407.00;;;4.10
68743;BMP180;55725;42.758;26.702;2023-02-15T00:39:18;100404.00;;;4.10
68743;BMP180;55725;42.758;26.702;2023-02-15T00:41:00;100406.00;;;4.00
68743;BMP180;55725;42.758;26.702;2023-02-15T00:42:40;100406.00;;;3.90
68743;BMP180;55725;42.758;26.702;2023-02-15T00:44:20;100407.00;;;3.90
68743;BMP180;55725;42.758;26.702;2023-02-15T00:46:02;100410.00;;;3.90
68743;BMP180;55725;42.758;26.702;2023-02-15T00:47:42;100406.00;;;3.80
68743;BMP180;55725;42.758;26.702;2023-02-15T00:49:22;100396.00;;;3.70
68743;BMP180;55725;42.758;26.702;2023-02-15T00:51:03;100400.00;;;3.60
68743;BMP180;55725;42.758;26.702;2023-02-15T00:52:43;100399.00;;;3.50
68743;BMP180;55725;42.758;26.702;2023-02-15T00:54:23;100397.00;;;3.50
68743;BMP180;55725;42.758;26.702;2023-02-15T00:56:04;100399.00;;;3.30
68743;BMP180;55725;42.758;26.702;2023-02-15T00:57:44;100399.00;;;3.20
68743;BMP180;55725;42.758;26.702;2023-02-15T00:59:25;100396.00;;;3.20
68743;BMP180;55725;42.758;26.702;2023-02-15T01:01:09;100401.00;;;3.20
68743;BMP180;55725;42.758;26.702;2023-02-15T01:02:50;100398.00;;;3.10
68743;BMP180;55725;42.758;26.702;2023-02-15T01:04:30;100393.00;;;3.10
68743;BMP180;55725;42.758;26.702;2023-02-15T01:06:11;100394.00;;;3.10
68743;BMP180;55725;42.758;26.702;2023-02-15T01:07:51;100398.00;;;3.00
68743;BMP180;55725;42.758;26.702;2023-02-15T01:09:31;100388.00;;;2.90
68743;BMP180;55725;42.758;26.702;2023-02-15T01:11:16;100399.00;;;3.00
68743;BMP180;55725;42.758;26.702;2023-02-15T01:13:01;100399.00;;;3.00
68743;BMP180;55725;42.758;26.702;2023-02-15T01:14:42;100405.00;;;2.90
68743;BMP180;55725;42.758;26.702;2023-02-15T01:16:23;100403.00;;;2.70
68743;BMP180;55725;42.758;26.702;2023-02-15T01:18:04;100406.00;;;2.80
68743;BMP180;55725;42.758;26.702;2023-02-15T01:19:44;100408.00;;;3.00
68743;BMP180;55725;42.758;26.702;2023-02-15T01:21:24;100404.00;;;2.70
68743;BMP180;55725;42.758;26.702;2023-02-15T01:23:05;100410.00;;;2.70
68743;BMP180;55725;42.758;26.702;2023-02-15T01:24:48;100406.00;;;2.60
68743;BMP180;55725;42.758;26.702;2023-02-15T01:26:28;100412.00;;;2.60
68743;BMP180;55725;42.758;26.702;2023-02-15T01:28:08;100415.00;;;3.00
68743;BMP180;55725;42.758;26.702;2023-02-15T01:29:49;100413.00;;;3.10
68743;BMP180;55725;42.758;26.702;2023-02-15T01:31:29;100411.00;;;2.60
68743;BMP180;55725;42.758;26.702;2023-02-15T01:33:10;100402.00;;;2.50
68743;BMP180;55725;42.758;26.702;2023-02-15T01:34:57;100401.00;;;2.40
68743;BMP180;55725;42.758;26.702;2023-02-15T01:36:37;100405.00;;;2.00
68743;BMP180;55725;42.758;26.702;2023-02-15T01:38:17;100409.00;;;1.80
68743;BMP180;55725;42.758;26.702;2023-02-15T01:39:58;100407.00;;;1.50
68743;BMP180;55725;42.758;26.702;2023-02-15T01:41:40;100403.00;;;1.60
68743;BMP180;55725;42.758;26.702;2023-02-15T01:43:20;100411.00;;;1.50
68743;BMP180;55725;42.758;26.702;2023-02-15T01:45:04;100416.00;;;1.50
68743;BMP180;55725;42.758;26.702;2023-02-15T01:46:46;100410.00;;;1.10
68743;BMP180;55725;42.758;26.702;2023-02-15T01:48:29;100406.00;;;0.80
68743;BMP180;55725;42.758;26.702;2023-02-15T01:50:21;100404.00;;;1.30
68743;BMP180;55725;42.758;26.702;2023-02-15T01:52:03;100405.00;;;1.60
68743;BMP180;55725;42.758;26.702;2023-02-15T01:53:45;100410.00;;;1.40
68743;BMP180;55725;42.758;26.702;2023-02-15T01:55:29;100402.00;;;1.40
68743;BMP180;55725;42.758;26.702;2023-02-15T01:57:17;100412.00;;;1.40
68743;BMP180;55725;42.758;26.702;2023-02-15T01:58:58;100401.00;;;1.30
68743;BMP180;55725;42.758;26.702;2023-02-15T02:00:40;100405.00;;;1.30
68743;BMP180;55725;42.758;26.702;2023-02-15T02:02:21;100411.00;;;1.40
68743;BMP180;55725;42.758;26.702;2023-02-15T02:05:44;100399.00;;;1.10
68743;BMP180;55725;42.758;26.702;2023-02-15T02:07:26;100405.00;;;1.10
68743;BMP180;55725;42.758;26.702;2023-02-15T02:09:07;100401.00;;;1.20
68743;BMP180;55725;42.758;26.702;2023-02-15T02:10:47;100407.00;;;1.30
68743;BMP180;55725;42.758;26.702;2023-02-15T02:12:28;100398.00;;;1.20
68743;BMP180;55725;42.758;26.702;2023-02-15T02:14:08;100410.00;;;0.60
68743;BMP180;55725;42.758;26.702;2023-02-15T02:15:54;100411.00;;;0.20
68743;BMP180;55725;42.758;26.702;2023-02-15T02:26:52;100426.00;;;0.50
68743;BMP180;55725;42.758;26.702;2023-02-15T02:37:55;100437.00;;;1.60
68743;BMP180;55725;42.758;26.702;2023-02-15T02:43:11;100438.00;;;1.90
68743;BMP180;55725;42.758;26.702;2023-02-15T02:48:19;100438.00;;;1.90
68743;BMP180;55725;42.758;26.702;2023-02-15T02:50:04;100447.00;;;1.80
68743;BMP180;55725;42.758;26.702;2023-02-15T02:51:44;100454.00;;;2.00
68743;BMP180;55725;42.758;26.702;2023-02-15T02:53:25;100451.00;;;2.00
68743;BMP180;55725;42.758;26.702;2023-02-15T02:55:51;100443.00;;;2.10
68743;BMP180;55725;42.758;26.702;2023-02-15T02:57:06;100443.00;;;2.40
68743;BMP180;55725;42.758;26.702;2023-02-15T02:58:51;100446.00;;;2.70
68743;BMP180;55725;42.758;26.702;2023-02-15T03:00:36;100446.00;;;2.80
68743;BMP180;55725;42.758;26.702;2023-02-15T03:02:19;100449.00;;;2.50
68743;BMP180;55725;42.758;26.702;2023-02-15T03:04:05;100452.00;;;2.40
68743;BMP180;55725;42.758;26.702;2023-02-15T03:05:47;100446.00;;;2.60
68743;BMP180;55725;42.758;26.702;2023-02-15T03:07:30;100446.00;;;2.50
68743;BMP180;55725;42.758;26.702;2023-02-15T03:09:16;100451.00;;;2.90
68743;BMP180;55725;42.758;26.702;2023-02-15T03:10:58;100453.00;;;3.10
68743;BMP180;55725;42.758;26.702;2023-02-15T03:12:39;100456.00;;;3.10
68743;BMP180;55725;42.758;26.702;2023-02-15T03:14:20;100461.00;;;3.10
68743;BMP180;55725;42.758;26.702;2023-02-15T03:16:01;100459.00;;;3.20
68743;BMP180;55725;42.758;26.702;2023-02-15T03:18:00;100458.00;;;3.30
68743;BMP180;55725;42.758;26.702;2023-02-15T03:19:42;100468.00;;;3.20
68743;BMP180;55725;42.758;26.702;2023-02-15T03:21:31;100461.00;;;2.90
68743;BMP180;55725;42.758;26.702;2023-02-15T03:23:13;100462.00;;;2.90
68743;BMP180;55725;42.758;26.702;2023-02-15T03:26:48;100456.00;;;2.80
68743;BMP180;55725;42.758;26.702;2023-02-15T03:30:13;100464.00;;;2.90
68743;BMP180;55725;42.758;26.702;2023-02-15T03:31:56;100468.00;;;2.80
68743;BMP180;55725;42.758;26.702;2023-02-15T03:33:38;100465.00;;;2.80
68743;BMP180;55725;42.758;26.702;2023-02-15T03:35:21;100477.00;;;2.90
68743;BMP180;55725;42.758;26.702;2023-02-15T03:37:05;100469.00;;;3.10
68743;BMP180;55725;42.758;26.702;2023-02-15T03:38:49;100472.00;;;2.90
68743;BMP180;55725;42.758;26.702;2023-02-15T03:40:38;100481.00;;;2.90
68743;BMP180;55725;42.758;26.702;2023-02-15T03:42:38;100481.00;;;2.80
68743;BMP180;55725;42.758;26.702;2023-02-15T03:46:06;100474.00;;;2.90
68743;BMP180;55725;42.758;26.702;2023-02-15T03:47:48;100471.00;;;2.80
68743;BMP180;55725;42.758;26.702;2023-02-15T03:49:40;100472.00;;;2.90
68743;BMP180;55725;42.758;26.702;2023-02-15T03:51:23;100470.00;;;3.00
68743;BMP180;55725;42.758;26.702;2023-02-15T03:53:14;100476.00;;;2.80
68743;BMP180;55725;42.758;26.702;2023-02-15T03:54:55;100477.00;;;3.00
68743;BMP180;55725;42.758;26.702;2023-02-15T03:56:36;100473.00;;;2.60
68743;BMP180;55725;42.758;26.702;2023-02-15T03:58:17;100484.00;;;2.50
68743;BMP180;55725;42.758;26.702;2023-02-15T04:00:18;100478.00;;;2.60
68743;BMP180;55725;42.758;26.702;2023-02-15T04:02:21;100477.00;;;2.70
68743;BMP180;55725;42.758;26.702;2023-02-15T04:04:12;100484.00;;;2.60
68743;BMP180;55725;42.758;26.702;2023-02-15T04:05:56;100482.00;;;2.30
68743;BMP180;55725;42.758;26.702;2023-02-15T04:07:36;100484.00;;;2.60
68743;BMP180;55725;42.758;26.702;2023-02-15T04:09:17;100484.00;;;2.50
68743;BMP180;55725;42.758;26.702;2023-02-15T04:11:15;100478.00;;;2.60
68743;BMP180;55725;42.758;26.702;2023-02-15T04:12:56;100482.00;;;2.90
68743;BMP180;55725;42.758;26.702;2023-02-15T04:14:36;100482.00;;;2.80
68743;BMP180;55725;42.758;26.702;2023-02-15T04:16:35;100484.00;;;2.50
68743;BMP180;55725;42.758;26.702;2023-02-15T04:18:16;100487.00;;;2.50
68743;BMP180;55725;42.758;26.702;2023-02-15T04:19:56;100491.00;;;2.60
68743;BMP180;55725;42.758;26.702;2023-02-15T04:21:55;100493.00;;;2.50
68743;BMP180;55725;42.758;26.702;2023-02-15T04:23:53;100491.00;;;2.70
68743;BMP180;55725;42.758;26.702;2023-02-15T04:25:52;100488.00;;;2.30
68743;BMP180;55725;42.758;26.702;2023-02-15T04:27:33;100498.00;;;2.70
68743;BMP180;55725;42.758;26.702;2023-02-15T04:29:14;100502.00;;;2.50
68743;BMP180;55725;42.758;26.702;2023-02-15T04:30:54;100504.00;;;2.50
68743;BMP180;55725;42.758;26.702;2023-02-15T04:32:35;100504.00;;;2.50
68743;BMP180;55725;42.758;26.702;2023-02-15T04:34:15;100499.00;;;2.60
68743;BMP180;55725;42.758;26.702;2023-02-15T04:35:56;100507.00;;;2.40
68743;BMP180;55725;42.758;26.702;2023-02-15T04:37:36;100512.00;;;2.30
68743;BMP180;55725;42.758;26.702;2023-02-15T04:39:17;100513.00;;;2.30
68743;BMP180;55725;42.758;26.702;2023-02-15T04:40:58;100512.00;;;2.70
68743;BMP180;55725;42.758;26.702;2023-02-15T04:42:38;100518.00;;;2.40
68743;BMP180;55725;42.758;26.702;2023-02-15T04:44:18;100523.00;;;2.60
68743;BMP180;55725;42.758;26.702;2023-02-15T04:45:59;100511.00;;;2.50
68743;BMP180;55725;42.758;26.702;2023-02-15T04:47:39;100520.00;;;2.60
68743;BMP180;55725;42.758;26.702;2023-02-15T04:49:19;100532.00;;;3.10
68743;BMP180;55725;42.758;26.702;2023-02-15T04:51:04;100531.00;;;2.90
68743;BMP180;55725;42.758;26.702;2023-02-15T04:52:44;100529.00;;;3.10
68743;BMP180;55725;42.758;26.702;2023-02-15T04:54:25;100532.00;;;3.20
68743;BMP180;55725;42.758;26.702;2023-02-15T04:56:05;100536.00;;;3.10
68743;BMP180;55725;42.758;26.702;2023-02-15T04:57:45;100535.00;;;3.00
68743;BMP180;55725;42.758;26.702;2023-02-15T04:59:26;100537.00;;;2.80
68743;BMP180;55725;42.758;26.702;2023-02-15T05:01:09;100537.00;;;2.70
68743;BMP180;55725;42.758;26.702;2023-02-15T05:02:49;100535.00;;;2.60
68743;BMP180;55725;42.758;26.702;2023-02-15T05:04:30;100539.00;;;3.00
68743;BMP180;55725;42.758;26.702;2023-02-15T05:06:10;100532.00;;;3.30
68743;BMP180;55725;42.758;26.702;2023-02-15T05:07:50;100537.00;;;3.20
68743;BMP180;55725;42.758;26.702;2023-02-15T05:09:31;100538.00;;;3.00
68743;BMP180;55725;42.758;26.702;2023-02-15T05:11:11;100539.00;;;3.10
68743;BMP180;55725;42.758;26.702;2023-02-15T05:12:51;100535.00;;;2.70
68743;BMP180;55725;42.758;26.702;2023-02-15T05:14:32;100549.00;;;2.80
68743;BMP180;55725;42.758;26.702;2023-02-15T05:16:12;100553.00;;;2.90
68743;BMP180;55725;42.758;26.702;2023-02-15T05:17:53;100550.00;;;2.80
68743;BMP180;55725;42.758;26.702;2023-02-15T05:19:33;100547.00;;;2.80
68743;BMP180;55725;42.758;26.702;2023-02-15T05:21:13;100552.00;;;3.00
68743;BMP180;55725;42.758;26.702;2023-02-15T05:22:56;100553.00;;;2.90
68743;BMP180;55725;42.758;26.702;2023-02-15T05:24:36;100563.00;;;3.00
68743;BMP180;55725;42.758;26.702;2023-02-15T05:26:35;100555.00;;;2.60
68743;BMP180;55725;42.758;26.702;2023-02-15T05:28:35;100548.00;;;2.90
68743;BMP180;55725;42.758;26.702;2023-02-15T05:30:15;100557.00;;;3.00
68743;BMP180;55725;42.758;26.702;2023-02-15T05:31:55;100545.00;;;3.10
68743;BMP180;55725;42.758;26.702;2023-02-15T05:33:36;100550.00;;;3.40
68743;BMP180;55725;42.758;26.702;2023-02-15T05:35:16;100547.00;;;2.90
68743;BMP180;55725;42.758;26.702;2023-02-15T05:36:57;100555.00;;;2.90
68743;BMP180;55725;42.758;26.702;2023-02-15T05:38:37;100545.00;;;3.10
68743;BMP180;55725;42.758;26.702;2023-02-15T05:40:18;100548.00;;;3.40
68743;BMP180;55725;42.758;26.702;2023-02-15T05:41:59;100557.00;;;3.80
68743;BMP180;55725;42.758;26.702;2023-02-15T05:43:39;100550.00;;;3.90
68743;BMP180;55725;42.758;26.702;2023-02-15T05:45:20;100542.00;;;3.90
68743;BMP180;55725;42.758;26.702;2023-02-15T05:47:00;100547.00;;;4.00
68743;BMP180;55725;42.758;26.702;2023-02-15T05:48:42;100547.00;;;4.10
68743;BMP180;55725;42.758;26.702;2023-02-15T05:50:23;100548.00;;;4.20
68743;BMP180;55725;42.758;26.702;2023-02-15T05:52:03;100539.00;;;4.30
68743;BMP180;55725;42.758;26.702;2023-02-15T05:53:43;100537.00;;;4.40
68743;BMP180;55725;42.758;26.702;2023-02-15T05:55:24;100550.00;;;4.30
68743;BMP180;55725;42.758;26.702;2023-02-15T05:57:04;100553.00;;;4.50
68743;BMP180;55725;42.758;26.702;2023-02-15T05:58:44;100548.00;;;4.70
68743;BMP180;55725;42.758;26.702;2023-02-15T06:00:25;100550.00;;;4.80
68743;BMP180;55725;42.758;26.702;2023-02-15T06:02:05;100551.00;;;4.70
68743;BMP180;55725;42.758;26.702;2023-02-15T06:03:46;100562.00;;;4.70
68743;BMP180;55725;42.758;26.702;2023-02-15T06:05:26;100549.00;;;5.00
68743;BMP180;55725;42.758;26.702;2023-02-15T06:07:07;100544.00;;;5.20
68743;BMP180;55725;42.758;26.702;2023-02-15T06:08:47;100554.00;;;5.20
68743;BMP180;55725;42.758;26.702;2023-02-15T06:10:28;100548.00;;;4.90
68743;BMP180;55725;42.758;26.702;2023-02-15T06:12:08;100551.00;;;4.90
68743;BMP180;55725;42.758;26.702;2023-02-15T06:13:48;100590.00;;;5.00
68743;BMP180;55725;42.758;26.702;2023-02-15T06:15:28;100578.00;;;4.80
68743;BMP180;55725;42.758;26.702;2023-02-15T06:17:09;100583.00;;;4.90
68743;BMP180;55725;42.758;26.702;2023-02-15T06:18:49;100592.00;;;4.70
68743;BMP180;55725;42.758;26.702;2023-02-15T06:20:29;100582.00;;;4.60
68743;BMP180;55725;42.758;26.702;2023-02-15T06:22:10;100586.00;;;4.80
68743;BMP180;55725;42.758;26.702;2023-02-15T06:23:50;100587.00;;;4.70
68743;BMP180;55725;42.758;26.702;2023-02-15T06:25:30;100580.00;;;4.80
68743;BMP180;55725;42.758;26.702;2023-02-15T06:27:11;100597.00;;;4.70
68743;BMP180;55725;42.758;26.702;2023-02-15T06:28:51;100592.00;;;4.60
68743;BMP180;55725;42.758;26.702;2023-02-15T06:30:31;100588.00;;;4.90
68743;BMP180;55725;42.758;26.702;2023-02-15T06:32:11;100590.00;;;4.80
68743;BMP180;55725;42.758;26.702;2023-02-15T06:33:52;100576.00;;;5.10
68743;BMP180;55725;42.758;26.702;2023-02-15T06:35:32;100566.00;;;4.90
68743;BMP180;55725;42.758;26.702;2023-02-15T06:37:12;100592.00;;;5.20
68743;BMP180;55725;42.758;26.702;2023-02-15T06:38:53;100534.00;;;5.60
68743;BMP180;55725;42.758;26.702;2023-02-15T06:40:33;100544.00;;;5.80
68743;BMP180;55725;42.758;26.702;2023-02-15T06:42:13;100543.00;;;5.60
68743;BMP180;55725;42.758;26.702;2023-02-15T06:43:53;100540.00;;;5.80
68743;BMP180;55725;42.758;26.702;2023-02-15T06:45:34;100536.00;;;5.90
68743;BMP180;55725;42.758;26.702;2023-02-15T06:47:14;100531.00;;;5.90
68743;BMP180;55725;42.758;26.702;2023-02-15T06:48:54;100544.00;;;6.30
68743;BMP180;55725;42.758;26.702;2023-02-15T06:50:35;100544.00;;;6.30
68743;BMP180;55725;42.758;26.702;2023-02-15T06:52:15;100532.00;;;6.40
68743;BMP180;55725;42.758;26.702;2023-02-15T06:53:55;100537.00;;;6.40
68743;BMP180;55725;42.758;26.702;2023-02-15T06:55:36;100530.00;;;6.50
68743;BMP180;55725;42.758;26.702;2023-02-15T06:57:16;100530.00;;;6.40
68743;BMP180;55725;42.758;26.702;2023-02-15T06:58:56;100533.00;;;6.70
68743;BMP180;55725;42.758;26.702;2023-02-15T07:00:37;100528.00;;;6.70
68743;BMP180;55725;42.758;26.702;2023-02-15T07:02:17;100531.00;;;6.70
68743;BMP180;55725;42.758;26.702;2023-02-15T07:03:57;100530.00;;;6.80
68743;BMP180;55725;42.758;26.702;2023-02-15T07:05:37;100536.00;;;6.80
68743;BMP180;55725;42.758;26.702;2023-02-15T07:07:18;100535.00;;;6.80
68743;BMP180;55725;42.758;26.702;2023-02-15T07:08:58;100537.00;;;6.90
68743;BMP180;55725;42.758;26.702;2023-02-15T07:10:39;100526.00;;;6.90
68743;BMP180;55725;42.758;26.702;2023-02-15T07:12:19;100521.00;;;7.00
68743;BMP180;55725;42.758;26.702;2023-02-15T07:14:18;100529.00;;;6.80
68743;BMP180;55725;42.758;26.702;2023-02-15T07:15:58;100540.00;;;7.40
68743;BMP180;55725;42.758;26.702;2023-02-15T07:17:39;100604.00;;;6.70
68743;BMP180;55725;42.758;26.702;2023-02-15T07:19:19;100597.00;;;6.30
68743;BMP180;55725;42.758;26.702;2023-02-15T07:20:59;100565.00;;;5.70
68743;BMP180;55725;42.758;26.702;2023-02-15T07:22:40;100558.00;;;6.80
68743;BMP180;55725;42.758;26.702;2023-02-15T07:24:20;100593.00;;;6.60
68743;BMP180;55725;42.758;26.702;2023-02-15T07:26:00;100512.00;;;7.30
68743;BMP180;55725;42.758;26.702;2023-02-15T07:27:41;100573.00;;;7.90
68743;BMP180;55725;42.758;26.702;2023-02-15T07:29:22;100592.00;;;6.60
68743;BMP180;55725;42.758;26.702;2023-02-15T07:31:03;100583.00;;;6.40
68743;BMP180;55725;42.758;26.702;2023-02-15T07:32:43;100586.00;;;6.80
68743;BMP180;55725;42.758;26.702;2023-02-15T07:34:42;100594.00;;;6.80
68743;BMP180;55725;42.758;26.702;2023-02-15T07:36:23;100589.00;;;6.50
68743;BMP180;55725;42.758;26.702;2023-02-15T07:38:03;100591.00;;;6.40
68743;BMP180;55725;42.758;26.702;2023-02-15T07:39:43;100592.00;;;6.60
68743;BMP180;55725;42.758;26.702;2023-02-15T07:41:23;100589.00;;;6.50
68743;BMP180;55725;42.758;26.702;2023-02-15T07:43:04;100580.00;;;6.40
68743;BMP180;55725;42.758;26.702;2023-02-15T07:44:44;100580.00;;;6.60
68743;BMP180;55725;42.758;26.702;2023-02-15T07:46:25;100591.00;;;6.30
68743;BMP180;55725;42.758;26.702;2023-02-15T07:48:05;100583.00;;;6.00
68743;BMP180;55725;42.758;26.702;2023-02-15T07:49:45;100581.00;;;6.00
68743;BMP180;55725;42.758;26.702;2023-02-15T07:51:26;100576.00;;;6.40
68743;BMP180;55725;42.758;26.702;2023-02-15T07:53:06;100581.00;;;6.80
68743;BMP180;55725;42.758;26.702;2023-02-15T07:54:46;100481.00;;;7.00
68743;BMP180;55725;42.758;26.702;2023-02-15T07:56:27;100548.00;;;7.80
68743;BMP180;55725;42.758;26.702;2023-02-15T07:58:07;100580.00;;;7.70
68743;BMP180;55725;42.758;26.702;2023-02-15T07:59:47;100594.00;;;6.80
68743;BMP180;55725;42.758;26.702;2023-02-15T08:01:30;100595.00;;;6.40
68743;BMP180;55725;42.758;26.702;2023-02-15T08:03:10;100588.00;;;6.10
68743;BMP180;55725;42.758;26.702;2023-02-15T08:04:53;100562.00;;;6.40
68743;BMP180;55725;42.758;26.702;2023-02-15T08:06:35;100597.00;;;6.40
68743;BMP180;55725;42.758;26.702;2023-02-15T08:08:15;100600.00;;;6.00
68743;BMP180;55725;42.758;26.702;2023-02-15T08:10:10;100601.00;;;6.30
68743;BMP180;55725;42.758;26.702;2023-02-15T08:12:11;100604.00;;;6.20
68743;BMP180;55725;42.758;26.702;2023-02-15T08:15:34;100608.00;;;6.30
68743;BMP180;55725;42.758;26.702;2023-02-15T08:17:14;100623.00;;;6.20
68743;BMP180;55725;42.758;26.702;2023-02-15T08:18:55;100614.00;;;5.90
68743;BMP180;55725;42.758;26.702;2023-02-15T08:20:35;100620.00;;;6.10
68743;BMP180;55725;42.758;26.702;2023-02-15T08:22:15;100612.00;;;6.10
68743;BMP180;55725;42.758;26.702;2023-02-15T08:23:56;100603.00;;;6.20
68743;BMP180;55725;42.758;26.702;2023-02-15T08:25:37;100544.00;;;6.50
68743;BMP180;55725;42.758;26.702;2023-02-15T08:27:17;100605.00;;;6.30
68743;BMP180;55725;42.758;26.702;2023-02-15T08:28:57;100597.00;;;6.70
68743;BMP180;55725;42.758;26.702;2023-02-15T08:30:38;100593.00;;;6.80
68743;BMP180;55725;42.758;26.702;2023-02-15T08:32:18;100583.00;;;6.70
68743;BMP180;55725;42.758;26.702;2023-02-15T08:33:58;100596.00;;;7.00
68743;BMP180;55725;42.758;26.702;2023-02-15T08:35:39;100596.00;;;6.50
68743;BMP180;55725;42.758;26.702;2023-02-15T08:37:19;100596.00;;;6.70
68743;BMP180;55725;42.758;26.702;2023-02-15T08:39:01;100611.00;;;7.10
68743;BMP180;55725;42.758;26.702;2023-02-15T08:40:41;100611.00;;;6.90
68743;BMP180;55725;42.758;26.702;2023-02-15T08:42:22;100613.00;;;6.50
68743;BMP180;55725;42.758;26.702;2023-02-15T08:44:03;100615.00;;;6.60
68743;BMP180;55725;42.758;26.702;2023-02-15T08:45:44;100619.00;;;6.60
68743;BMP180;55725;42.758;26.702;2023-02-15T08:47:24;100623.00;;;6.70
68743;BMP180;55725;42.758;26.702;2023-02-15T08:49:05;100608.00;;;6.50
68743;BMP180;55725;42.758;26.702;2023-02-15T08:50:45;100618.00;;;6.90
68743;BMP180;55725;42.758;26.702;2023-02-15T08:52:26;100617.00;;;6.80
68743;BMP180;55725;42.758;26.702;2023-02-15T08:54:07;100614.00;;;6.70
68743;BMP180;55725;42.758;26.702;2023-02-15T08:55:55;100619.00;;;6.80
68743;BMP180;55725;42.758;26.702;2023-02-15T08:57:35;100614.00;;;6.90
68743;BMP180;55725;42.758;26.702;2023-02-15T08:59:18;100617.00;;;7.10
68743;BMP180;55725;42.758;26.702;2023-02-15T09:00:58;100619.00;;;6.90
68743;BMP180;55725;42.758;26.702;2023-02-15T09:02:39;100612.00;;;6.80
68743;BMP180;55725;42.758;26.702;2023-02-15T09:04:19;100602.00;;;6.90
68743;BMP180;55725;42.758;26.702;2023-02-15T09:06:00;100604.00;;;7.10
68743;BMP180;55725;42.758;26.702;2023-02-15T09:07:41;100615.00;;;7.10
68743;BMP180;55725;42.758;26.702;2023-02-15T09:09:21;100610.00;;;7.00
68743;BMP180;55725;42.758;26.702;2023-02-15T09:11:11;100607.00;;;7.30
68743;BMP180;55725;42.758;26.702;2023-02-15T09:12:52;100610.00;;;7.00
68743;BMP180;55725;42.758;26.702;2023-02-15T09:14:32;100598.00;;;6.90
68743;BMP180;55725;42.758;26.702;2023-02-15T09:16:13;100598.00;;;7.20
68743;BMP180;55725;42.758;26.702;2023-02-15T09:17:53;100601.00;;;7.20
68743;BMP180;55725;42.758;26.702;2023-02-15T09:19:33;100603.00;;;7.00
68743;BMP180;55725;42.758;26.702;2023-02-15T09:21:15;100601.00;;;7.20
68743;BMP180;55725;42.758;26.702;2023-02-15T09:22:56;100601.00;;;7.40
68743;BMP180;55725;42.758;26.702;2023-02-15T09:24:36;100594.00;;;7.30
68743;BMP180;55725;42.758;26.702;2023-02-15T09:26:20;100588.00;;;6.80
68743;BMP180;55725;42.758;26.702;2023-02-15T09:28:00;100587.00;;;7.20
68743;BMP180;55725;42.758;26.702;2023-02-15T09:29:41;100575.00;;;7.70
68743;BMP180;55725;42.758;26.702;2023-02-15T09:31:24;100572.00;;;7.50
68743;BMP180;55725;42.758;26.702;2023-02-15T09:33:05;100564.00;;;7.30
68743;BMP180;55725;42.758;26.702;2023-02-15T09:34:45;100443.00;;;6.60
68743;BMP180;55725;42.758;26.702;2023-02-15T09:36:26;100567.00;;;7.60
68743;BMP180;55725;42.758;26.702;2023-02-15T09:38:07;100565.00;;;6.90
68743;BMP180;55725;42.758;26.702;2023-02-15T09:39:47;100558.00;;;7.90
68743;BMP180;55725;42.758;26.702;2023-02-15T09:45:39;100552.00;;;9.20
68743;BMP180;55725;42.758;26.702;2023-02-15T09:47:41;100554.00;;;7.60
68743;BMP180;55725;42.758;26.702;2023-02-15T09:51:33;100545.00;;;7.30
68743;BMP180;55725;42.758;26.702;2023-02-15T09:53:29;100551.00;;;7.00
68743;BMP180;55725;42.758;26.702;2023-02-15T09:56:59;100543.00;;;8.20
68743;BMP180;55725;42.758;26.702;2023-02-15T10:00:39;100539.00;;;7.00
68743;BMP180;55725;42.758;26.702;2023-02-15T10:02:27;100532.00;;;8.40
68743;BMP180;55725;42.758;26.702;2023-02-15T10:17:01;100536.00;;;9.80
68743;BMP180;55725;42.758;26.702;2023-02-15T10:24:42;100531.00;;;8.90
68743;BMP180;55725;42.758;26.702;2023-02-15T10:28:19;100528.00;;;8.20
68743;BMP180;55725;42.758;26.702;2023-02-15T10:30:10;100526.00;;;8.40
68743;BMP180;55725;42.758;26.702;2023-02-15T10:31:51;100525.00;;;8.40
68743;BMP180;55725;42.758;26.702;2023-02-15T10:33:42;100522.00;;;8.70
68743;BMP180;55725;42.758;26.702;2023-02-15T10:51:58;100486.00;;;10.20
68743;BMP180;55725;42.758;26.702;2023-02-15T10:55:18;100394.00;;;10.80
68743;BMP180;55725;42.758;26.702;2023-02-15T10:57:04;100482.00;;;11.00
68743;BMP180;55725;42.758;26.702;2023-02-15T10:58:56;100383.00;;;10.40
68743;BMP180;55725;42.758;26.702;2023-02-15T11:00:44;100474.00;;;10.00
68743;BMP180;55725;42.758;26.702;2023-02-15T11:06:18;100487.00;;;11.60
68743;BMP180;55725;42.758;26.702;2023-02-15T11:07:59;100370.00;;;10.50